sensor_id;sensor_type;location;lat;lon;timestamp;P1;durP1;ratioP1;P2;durP2;ratioP2
59986;SDS011;46181;51.498;5.392;2023-04-24T00:03:15;10.488;;;7.092;;
59986;SDS011;46181;51.498;5.392;2023-04-24T00:07:45;11.652;;;6.480001;;
59986;SDS011;46181;51.498;5.392;2023-04-24T00:12:15;11.092;;;7.360001;;
59986;SDS011;46181;51.498;5.392;2023-04-24T00:16:45;11.056;;;7.532;;
59986;SDS011;46181;51.498;5.392;2023-04-24T00:21:15;14.72;;;7.736001;;
59986;SDS011;46181;51.498;5.392;2023-04-24T00:25:45;12.12;;;7.852;;
59986;SDS011;46181;51.498;5.392;2023-04-24T00:30:15;15.304;;;8.424;;
59986;SDS011;46181;51.498;5.392;2023-04-24T00:34:45;14.468;;;8.516001;;
59986;SDS011;46181;51.498;5.392;2023-04-24T00:39:15;13.544;;;8.115999;;
59986;SDS011;46181;51.498;5.392;2023-04-24T00:43:45;19.548;;;9.292;;
59986;SDS011;46181;51.498;5.392;2023-04-24T00:48:15;16.556;;;9.164001;;
59986;SDS011;46181;51.498;5.392;2023-04-24T00:52:45;15.828;;;9.632001;;
59986;SDS011;46181;51.498;5.392;2023-04-24T00:57:15;15.92;;;9.16;;
59986;SDS011;46181;51.498;5.392;2023-04-24T01:01:45;14.148;;;9.096002;;
59986;SDS011;46181;51.498;5.392;2023-04-24T01:06:15;16.644;;;9.676;;
59986;SDS011;46181;51.498;5.392;2023-04-24T01:10:45;15.844;;;9.743999;;
59986;SDS011;46181;51.498;5.392;2023-04-24T01:15:15;16.256;;;9.708;;
59986;SDS011;46181;51.498;5.392;2023-04-24T01:19:45;16.48;;;9.528002;;
59986;SDS011;46181;51.498;5.392;2023-04-24T01:24:15;16.852;;;9.644;;
59986;SDS011;46181;51.498;5.392;2023-04-24T01:28:45;17.7;;;10.856;;
59986;SDS011;46181;51.498;5.392;2023-04-24T01:33:15;17.78;;;10.668;;
59986;SDS011;46181;51.498;5.392;2023-04-24T01:37:45;21.284;;;10.768;;
59986;SDS011;46181;51.498;5.392;2023-04-24T01:42:15;20.652;;;11.824;;
59986;SDS011;46181;51.498;5.392;2023-04-24T01:46:45;20.056;;;12.116;;
59986;SDS011;46181;51.498;5.392;2023-04-24T01:51:15;21.128;;;13.052;;
59986;SDS011;46181;51.498;5.392;2023-04-24T01:55:45;20.948;;;11.88;;
59986;SDS011;46181;51.498;5.392;2023-04-24T02:00:15;21.86;;;13.712;;
59986;SDS011;46181;51.498;5.392;2023-04-24T02:04:45;19.204;;;11.764;;
59986;SDS011;46181;51.498;5.392;2023-04-24T02:09:15;20.88;;;12.628;;
59986;SDS011;46181;51.498;5.392;2023-04-24T02:13:45;23.964;;;12.552;;
59986;SDS011;46181;51.498;5.392;2023-04-24T02:18:15;22.168;;;12.388;;
59986;SDS011;46181;51.498;5.392;2023-04-24T02:22:45;23.596;;;12.72;;
59986;SDS011;46181;51.498;5.392;2023-04-24T02:27:15;21.608;;;12.228;;
59986;SDS011;46181;51.498;5.392;2023-04-24T02:31:45;20.516;;;11.972;;
59986;SDS011;46181;51.498;5.392;2023-04-24T02:36:15;22.408;;;12.808;;
59986;SDS011;46181;51.498;5.392;2023-04-24T02:40:45;23.164;;;12.48;;
59986;SDS011;46181;51.498;5.392;2023-04-24T02:45:15;17.7;;;11.876;;
59986;SDS011;46181;51.498;5.392;2023-04-24T02:49:45;19.208;;;11.42;;
59986;SDS011;46181;51.498;5.392;2023-04-24T02:54:15;18.568;;;10.724;;
59986;SDS011;46181;51.498;5.392;2023-04-24T02:58:45;16.064;;;10.34;;
59986;SDS011;46181;51.498;5.392;2023-04-24T03:03:15;18.1;;;10.976;;
59986;SDS011;46181;51.498;5.392;2023-04-24T03:07:45;18.928;;;11.384;;
59986;SDS011;46181;51.498;5.392;2023-04-24T03:12:15;20.984;;;11.508;;
59986;SDS011;46181;51.498;5.392;2023-04-24T03:16:45;19.312;;;11.408;;
59986;SDS011;46181;51.498;5.392;2023-04-24T03:21:15;18.452;;;11.136;;
59986;SDS011;46181;51.498;5.392;2023-04-24T03:25:45;17.812;;;10.376;;
59986;SDS011;46181;51.498;5.392;2023-04-24T03:30:15;17.964;;;10.852;;
59986;SDS011;46181;51.498;5.392;2023-04-24T03:34:45;19.676;;;10.008;;
59986;SDS011;46181;51.498;5.392;2023-04-24T03:39:15;19.056;;;10.848;;
59986;SDS011;46181;51.498;5.392;2023-04-24T03:43:45;16.42;;;10.272;;
59986;SDS011;46181;51.498;5.392;2023-04-24T03:48:15;17.46;;;10.144;;
59986;SDS011;46181;51.498;5.392;2023-04-24T03:52:45;19.752;;;10.828;;
59986;SDS011;46181;51.498;5.392;2023-04-24T03:57:15;15.124;;;10.2;;
59986;SDS011;46181;51.498;5.392;2023-04-24T04:01:45;17.844;;;10.204;;
59986;SDS011;46181;51.498;5.392;2023-04-24T04:06:15;23.5;;;10.276;;
59986;SDS011;46181;51.498;5.392;2023-04-24T04:10:45;16.44;;;10.096;;
59986;SDS011;46181;51.498;5.392;2023-04-24T04:15:15;15.82;;;10.268;;
59986;SDS011;46181;51.498;5.392;2023-04-24T04:19:45;16.136;;;9.728;;
59986;SDS011;46181;51.498;5.392;2023-04-24T04:24:15;14.704;;;9.676001;;
59986;SDS011;46181;51.498;5.392;2023-04-24T04:28:45;15.592;;;10.164;;
59986;SDS011;46181;51.498;5.392;2023-04-24T04:33:15;15.928;;;9.548001;;
59986;SDS011;46181;51.498;5.392;2023-04-24T04:37:45;16.168;;;8.971999;;
59986;SDS011;46181;51.498;5.392;2023-04-24T04:42:15;13.24;;;8.884;;
59986;SDS011;46181;51.498;5.392;2023-04-24T04:46:45;16.84;;;9.156001;;
59986;SDS011;46181;51.498;5.392;2023-04-24T04:51:15;14.252;;;8.748;;
59986;SDS011;46181;51.498;5.392;2023-04-24T04:55:45;11.888;;;7.88;;
59986;SDS011;46181;51.498;5.392;2023-04-24T05:00:15;11.58;;;7.532;;
59986;SDS011;46181;51.498;5.392;2023-04-24T05:04:45;11.2;;;7.599999;;
59986;SDS011;46181;51.498;5.392;2023-04-24T05:09:15;11.356;;;6.904;;
59986;SDS011;46181;51.498;5.392;2023-04-24T05:13:45;10.444;;;6.268001;;
59986;SDS011;46181;51.498;5.392;2023-04-24T05:18:15;9.007999;;;5.316;;
59986;SDS011;46181;51.498;5.392;2023-04-24T05:22:45;12.396;;;5.224;;
59986;SDS011;46181;51.498;5.392;2023-04-24T05:27:15;0.132;;;0.1;;
59986;SDS011;46181;51.498;5.392;2023-04-24T05:31:45;0.144;;;0.144;;
59986;SDS011;46181;51.498;5.392;2023-04-24T05:36:15;0.1;;;0.1;;
59986;SDS011;46181;51.498;5.392;2023-04-24T05:40:45;0.1;;;0.1;;
59986;SDS011;46181;51.498;5.392;2023-04-24T05:45:15;0.192;;;0.16;;
59986;SDS011;46181;51.498;5.392;2023-04-24T05:49:45;0.1;;;0.1;;
59986;SDS011;46181;51.498;5.392;2023-04-24T05:54:15;0.1;;;0.1;;
59986;SDS011;46181;51.498;5.392;2023-04-24T05:58:45;0.22;;;0.22;;
59986;SDS011;46181;51.498;5.392;2023-04-24T06:03:15;0.1;;;0.1;;
59986;SDS011;46181;51.498;5.392;2023-04-24T06:07:45;0.112;;;0.112;;
59986;SDS011;46181;51.498;5.392;2023-04-24T06:12:15;0.18;;;0.18;;
59986;SDS011;46181;51.498;5.392;2023-04-24T06:16:45;0.32;;;0.32;;
59986;SDS011;46181;51.498;5.392;2023-04-24T06:21:15;0.1;;;0.1;;
59986;SDS011;46181;51.498;5.392;2023-04-24T06:25:45;0.148;;;0.148;;
59986;SDS011;46181;51.498;5.392;2023-04-24T06:30:15;0.104;;;0.104;;
59986;SDS011;46181;51.498;5.392;2023-04-24T06:34:45;0.196;;;0.196;;
59986;SDS011;46181;51.498;5.392;2023-04-24T06:39:15;0.3;;;0.3;;
59986;SDS011;46181;51.498;5.392;2023-04-24T06:43:45;0.1;;;0.1;;
59986;SDS011;46181;51.498;5.392;2023-04-24T06:48:15;0.1;;;0.1;;
59986;SDS011;46181;51.498;5.392;2023-04-24T06:52:45;0.176;;;0.152;;
59986;SDS011;46181;51.498;5.392;2023-04-24T06:57:15;0.552;;;0.308;;
59986;SDS011;46181;51.498;5.392;2023-04-24T07:01:45;0.1;;;0.1;;
59986;SDS011;46181;51.498;5.392;2023-04-24T07:06:15;0.204;;;0.204;;
59986;SDS011;46181;51.498;5.392;2023-04-24T07:10:45;1.408;;;0.764;;
59986;SDS011;46181;51.498;5.392;2023-04-24T07:15:15;0.636;;;0.636;;
59986;SDS011;46181;51.498;5.392;2023-04-24T07:19:45;0.436;;;0.188;;
59986;SDS011;46181;51.498;5.392;2023-04-24T07:24:15;0.208;;;0.196;;
59986;SDS011;46181;51.498;5.392;2023-04-24T07:28:45;0.3;;;0.3;;
59986;SDS011;46181;51.498;5.392;2023-04-24T07:33:15;0.1;;;0.1;;
59986;SDS011;46181;51.498;5.392;2023-04-24T07:37:45;0.404;;;0.348;;
59986;SDS011;46181;51.498;5.392;2023-04-24T07:42:15;0.292;;;0.2;;
59986;SDS011;46181;51.498;5.392;2023-04-24T07:46:45;0.368;;;0.368;;
59986;SDS011;46181;51.498;5.392;2023-04-24T07:51:15;0.208;;;0.208;;
59986;SDS011;46181;51.498;5.392;2023-04-24T07:55:45;0.1;;;0.1;;
59986;SDS011;46181;51.498;5.392;2023-04-24T08:00:15;0.788;;;0.268;;
59986;SDS011;46181;51.498;5.392;2023-04-24T08:04:45;0.496;;;0.244;;
59986;SDS011;46181;51.498;5.392;2023-04-24T08:09:15;1.252;;;0.372;;
59986;SDS011;46181;51.498;5.392;2023-04-24T08:13:45;0.22;;;0.212;;
59986;SDS011;46181;51.498;5.392;2023-04-24T08:18:15;0.1;;;0.1;;
59986;SDS011;46181;51.498;5.392;2023-04-24T08:22:45;0.1;;;0.1;;
59986;SDS011;46181;51.498;5.392;2023-04-24T08:27:15;0.124;;;0.1;;
59986;SDS011;46181;51.498;5.392;2023-04-24T08:31:45;0.456;;;0.4;;
59986;SDS011;46181;51.498;5.392;2023-04-24T08:36:15;0.336;;;0.144;;
59986;SDS011;46181;51.498;5.392;2023-04-24T08:40:45;0.756;;;0.656;;
59986;SDS011;46181;51.498;5.392;2023-04-24T08:45:15;0.452;;;0.452;;
59986;SDS011;46181;51.498;5.392;2023-04-24T08:49:46;0.252;;;0.212;;
59986;SDS011;46181;51.498;5.392;2023-04-24T08:54:15;0.104;;;0.104;;
59986;SDS011;46181;51.498;5.392;2023-04-24T08:58:45;0.1;;;0.1;;
59986;SDS011;46181;51.498;5.392;2023-04-24T09:03:15;0.592;;;0.592;;
59986;SDS011;46181;51.498;5.392;2023-04-24T09:07:45;0.1;;;0.1;;
59986;SDS011;46181;51.498;5.392;2023-04-24T09:12:15;0.1;;;0.1;;
59986;SDS011;46181;51.498;5.392;2023-04-24T09:16:45;0.108;;;0.108;;
59986;SDS011;46181;51.498;5.392;2023-04-24T09:21:15;0.252;;;0.252;;
59986;SDS011;46181;51.498;5.392;2023-04-24T09:25:45;0.1;;;0.1;;
59986;SDS011;46181;51.498;5.392;2023-04-24T09:30:15;0.1;;;0.1;;
59986;SDS011;46181;51.498;5.392;2023-04-24T09:34:45;0.1;;;0.1;;
59986;SDS011;46181;51.498;5.392;2023-04-24T09:39:15;0.1;;;0.1;;
59986;SDS011;46181;51.498;5.392;2023-04-24T09:43:45;0.088;;;0.088;;
59986;SDS011;46181;51.498;5.392;2023-04-24T09:48:15;0.1;;;0.1;;
59986;SDS011;46181;51.498;5.392;2023-04-24T09:52:56;0.1;;;0.1;;
59986;SDS011;46181;51.498;5.392;2023-04-24T09:57:15;0.112;;;0.1;;
59986;SDS011;46181;51.498;5.392;2023-04-24T10:01:45;0.1;;;0.1;;
59986;SDS011;46181;51.498;5.392;2023-04-24T10:06:15;1.556;;;0.32;;
59986;SDS011;46181;51.498;5.392;2023-04-24T10:10:45;0.116;;;0.116;;
59986;SDS011;46181;51.498;5.392;2023-04-24T10:15:15;1.004;;;0.984;;
59986;SDS011;46181;51.498;5.392;2023-04-24T10:19:45;0.1;;;0.1;;
59986;SDS011;46181;51.498;5.392;2023-04-24T10:24:16;0.1;;;0.1;;
59986;SDS011;46181;51.498;5.392;2023-04-24T10:28:45;0.2;;;0.2;;
59986;SDS011;46181;51.498;5.392;2023-04-24T10:33:15;0.1;;;0.1;;
59986;SDS011;46181;51.498;5.392;2023-04-24T10:37:46;0.176;;;0.176;;
59986;SDS011;46181;51.498;5.392;2023-04-24T10:42:18;0.244;;;0.244;;
59986;SDS011;46181;51.498;5.392;2023-04-24T10:46:46;0.1;;;0.1;;
59986;SDS011;46181;51.498;5.392;2023-04-24T10:51:15;0.1;;;0.1;;
59986;SDS011;46181;51.498;5.392;2023-04-24T10:55:46;0.1;;;0.1;;
59986;SDS011;46181;51.498;5.392;2023-04-24T11:00:25;0.1;;;0.1;;
59986;SDS011;46181;51.498;5.392;2023-04-24T11:04:45;0.1;;;0.1;;
59986;SDS011;46181;51.498;5.392;2023-04-24T11:09:15;0.1;;;0.1;;
59986;SDS011;46181;51.498;5.392;2023-04-24T11:18:18;0.1;;;0.1;;
59986;SDS011;46181;51.498;5.392;2023-04-24T11:22:45;0.128;;;0.128;;
59986;SDS011;46181;51.498;5.392;2023-04-24T11:27:16;0.1;;;0.1;;
59986;SDS011;46181;51.498;5.392;2023-04-24T11:31:45;0.1;;;0.1;;
59986;SDS011;46181;51.498;5.392;2023-04-24T11:36:15;0.1;;;0.1;;
59986;SDS011;46181;51.498;5.392;2023-04-24T11:40:45;0.1;;;0.1;;
59986;SDS011;46181;51.498;5.392;2023-04-24T11:45:16;0.1;;;0.1;;
59986;SDS011;46181;51.498;5.392;2023-04-24T11:49:45;0.072;;;0.072;;
59986;SDS011;46181;51.498;5.392;2023-04-24T11:54:15;0.1;;;0.1;;
59986;SDS011;46181;51.498;5.392;2023-04-24T11:58:45;6.464;;;2.448;;
59986;SDS011;46181;51.498;5.392;2023-04-24T12:03:15;3.58;;;0.964;;
59986;SDS011;46181;51.498;5.392;2023-04-24T12:07:45;2.836;;;0.896;;
59986;SDS011;46181;51.498;5.392;2023-04-24T12:12:16;2.748;;;1.028;;
59986;SDS011;46181;51.498;5.392;2023-04-24T12:16:46;5.716001;;;1.176;;
59986;SDS011;46181;51.498;5.392;2023-04-24T12:21:18;3.240001;;;1.2;;
59986;SDS011;46181;51.498;5.392;2023-04-24T12:25:45;5.851999;;;1.152;;
59986;SDS011;46181;51.498;5.392;2023-04-24T12:30:16;6.348001;;;1.424;;
59986;SDS011;46181;51.498;5.392;2023-04-24T12:34:45;5.271999;;;1.56;;
59986;SDS011;46181;51.498;5.392;2023-04-24T12:39:18;5.083999;;;1.308;;
59986;SDS011;46181;51.498;5.392;2023-04-24T12:43:55;4.048;;;1.044;;
59986;SDS011;46181;51.498;5.392;2023-04-24T12:48:15;3.476;;;1.108;;
59986;SDS011;46181;51.498;5.392;2023-04-24T12:52:45;2.868;;;1.072;;
59986;SDS011;46181;51.498;5.392;2023-04-24T12:57:15;3.376;;;0.888;;
59986;SDS011;46181;51.498;5.392;2023-04-24T13:01:45;3.072;;;0.952;;
59986;SDS011;46181;51.498;5.392;2023-04-24T13:06:15;3.42;;;1.02;;
59986;SDS011;46181;51.498;5.392;2023-04-24T13:10:45;3.184;;;0.856;;
59986;SDS011;46181;51.498;5.392;2023-04-24T13:15:15;3.052;;;0.648;;
59986;SDS011;46181;51.498;5.392;2023-04-24T13:19:45;2.712;;;1.056;;
59986;SDS011;46181;51.498;5.392;2023-04-24T13:24:15;2.956;;;0.804;;
59986;SDS011;46181;51.498;5.392;2023-04-24T13:28:45;4.164;;;1.248;;
59986;SDS011;46181;51.498;5.392;2023-04-24T13:33:15;3.839999;;;1.012;;
59986;SDS011;46181;51.498;5.392;2023-04-24T13:37:45;4.048;;;1.064;;
59986;SDS011;46181;51.498;5.392;2023-04-24T13:42:15;3.608001;;;1.056;;
59986;SDS011;46181;51.498;5.392;2023-04-24T13:46:46;4.012;;;1.292;;
59986;SDS011;46181;51.498;5.392;2023-04-24T13:51:15;2.832;;;1.08;;
59986;SDS011;46181;51.498;5.392;2023-04-24T13:55:45;3.868;;;1.488;;
59986;SDS011;46181;51.498;5.392;2023-04-24T14:00:16;6.004;;;1.476;;
59986;SDS011;46181;51.498;5.392;2023-04-24T14:04:45;5.76;;;1.512;;
59986;SDS011;46181;51.498;5.392;2023-04-24T14:09:15;3.496;;;1.384;;
59986;SDS011;46181;51.498;5.392;2023-04-24T14:13:45;4.18;;;1.328;;
59986;SDS011;46181;51.498;5.392;2023-04-24T14:18:15;5;;;1.608;;
59986;SDS011;46181;51.498;5.392;2023-04-24T14:22:45;4.864;;;1.304;;
59986;SDS011;46181;51.498;5.392;2023-04-24T14:27:15;4.880001;;;1.292;;
59986;SDS011;46181;51.498;5.392;2023-04-24T14:31:45;4.876;;;1.324;;
59986;SDS011;46181;51.498;5.392;2023-04-24T14:36:15;4.168;;;1.156;;
59986;SDS011;46181;51.498;5.392;2023-04-24T14:40:45;3.944;;;1.056;;
59986;SDS011;46181;51.498;5.392;2023-04-24T14:45:15;3.135999;;;1.116;;
59986;SDS011;46181;51.498;5.392;2023-04-24T14:49:45;4.04;;;1.212;;
59986;SDS011;46181;51.498;5.392;2023-04-24T14:54:15;3.388001;;;1.116;;
59986;SDS011;46181;51.498;5.392;2023-04-24T14:58:45;4.032001;;;1.392;;
59986;SDS011;46181;51.498;5.392;2023-04-24T15:03:15;4.076;;;1.216;;
59986;SDS011;46181;51.498;5.392;2023-04-24T15:07:45;7.356;;;2.124;;
59986;SDS011;46181;51.498;5.392;2023-04-24T15:12:15;3.72;;;1.224;;
59986;SDS011;46181;51.498;5.392;2023-04-24T15:16:45;5.035999;;;1.204;;
59986;SDS011;46181;51.498;5.392;2023-04-24T15:21:15;3.292;;;1.24;;
59986;SDS011;46181;51.498;5.392;2023-04-24T15:25:45;5.228;;;1.376;;
59986;SDS011;46181;51.498;5.392;2023-04-24T15:30:15;5.52;;;1.288;;
59986;SDS011;46181;51.498;5.392;2023-04-24T15:34:45;4.152001;;;1.148;;
59986;SDS011;46181;51.498;5.392;2023-04-24T15:39:15;5.604;;;1.496;;
59986;SDS011;46181;51.498;5.392;2023-04-24T15:43:45;4.5;;;1.732;;
59986;SDS011;46181;51.498;5.392;2023-04-24T15:48:15;4.968;;;1.632;;
59986;SDS011;46181;51.498;5.392;2023-04-24T15:52:45;3.996;;;1.608;;
59986;SDS011;46181;51.498;5.392;2023-04-24T15:57:15;4.664001;;;1.564;;
59986;SDS011;46181;51.498;5.392;2023-04-24T16:01:45;5.488;;;1.492;;
59986;SDS011;46181;51.498;5.392;2023-04-24T16:06:15;5.447999;;;1.776;;
59986;SDS011;46181;51.498;5.392;2023-04-24T16:10:45;10.232;;;2.028;;
59986;SDS011;46181;51.498;5.392;2023-04-24T16:15:15;7.075999;;;2.392;;
59986;SDS011;46181;51.498;5.392;2023-04-24T16:19:45;9.796001;;;2.64;;
59986;SDS011;46181;51.498;5.392;2023-04-24T16:24:15;10.056;;;2.507999;;
59986;SDS011;46181;51.498;5.392;2023-04-24T16:28:45;7.148001;;;2.084;;
59986;SDS011;46181;51.498;5.392;2023-04-24T16:33:15;7.919999;;;1.996;;
59986;SDS011;46181;51.498;5.392;2023-04-24T16:37:45;7.004;;;1.996;;
59986;SDS011;46181;51.498;5.392;2023-04-24T16:42:15;7.012;;;2.044;;
59986;SDS011;46181;51.498;5.392;2023-04-24T16:46:45;7.06;;;2.004;;
59986;SDS011;46181;51.498;5.392;2023-04-24T16:51:15;5.332;;;1.796;;
59986;SDS011;46181;51.498;5.392;2023-04-24T16:55:45;6.08;;;2.096;;
59986;SDS011;46181;51.498;5.392;2023-04-24T17:00:16;6.76;;;2.039999;;
59986;SDS011;46181;51.498;5.392;2023-04-24T17:04:45;8.163999;;;1.964;;
59986;SDS011;46181;51.498;5.392;2023-04-24T17:09:15;8.688;;;2.108;;
59986;SDS011;46181;51.498;5.392;2023-04-24T17:13:45;6.276001;;;2.288;;
59986;SDS011;46181;51.498;5.392;2023-04-24T17:18:15;6.532002;;;1.892;;
59986;SDS011;46181;51.498;5.392;2023-04-24T17:22:45;10.08;;;2.116;;
59986;SDS011;46181;51.498;5.392;2023-04-24T17:27:15;6.159999;;;1.86;;
59986;SDS011;46181;51.498;5.392;2023-04-24T17:31:45;8.683999;;;2.016;;
59986;SDS011;46181;51.498;5.392;2023-04-24T17:36:15;10.896;;;2.671999;;
59986;SDS011;46181;51.498;5.392;2023-04-24T17:40:45;6.58;;;2.128;;
59986;SDS011;46181;51.498;5.392;2023-04-24T17:45:15;8.151999;;;2.208;;
59986;SDS011;46181;51.498;5.392;2023-04-24T17:49:45;9.032;;;3.752;;
59986;SDS011;46181;51.498;5.392;2023-04-24T17:54:15;7.144;;;2.356;;
59986;SDS011;46181;51.498;5.392;2023-04-24T17:58:45;9.204;;;3.003999;;
59986;SDS011;46181;51.498;5.392;2023-04-24T18:03:15;7.320001;;;2.512;;
59986;SDS011;46181;51.498;5.392;2023-04-24T18:07:45;5.980001;;;2.26;;
59986;SDS011;46181;51.498;5.392;2023-04-24T18:12:15;7.360001;;;2.196;;
59986;SDS011;46181;51.498;5.392;2023-04-24T18:16:45;9.580001;;;2.848;;
59986;SDS011;46181;51.498;5.392;2023-04-24T18:21:15;8.964001;;;3.135999;;
59986;SDS011;46181;51.498;5.392;2023-04-24T18:25:45;9.62;;;2.744;;
59986;SDS011;46181;51.498;5.392;2023-04-24T18:30:15;11.94;;;3.812;;
59986;SDS011;46181;51.498;5.392;2023-04-24T18:34:45;10.952;;;3.592;;
59986;SDS011;46181;51.498;5.392;2023-04-24T18:39:15;11.94;;;3.496;;
59986;SDS011;46181;51.498;5.392;2023-04-24T18:43:45;8.276;;;2.868001;;
59986;SDS011;46181;51.498;5.392;2023-04-24T18:48:15;10.7;;;2.792;;
59986;SDS011;46181;51.498;5.392;2023-04-24T18:52:45;9.344;;;2.932;;
59986;SDS011;46181;51.498;5.392;2023-04-24T18:57:15;11.284;;;3.111999;;
59986;SDS011;46181;51.498;5.392;2023-04-24T19:01:45;11.332;;;3.484;;
59986;SDS011;46181;51.498;5.392;2023-04-24T19:06:15;8.783999;;;3.140001;;
59986;SDS011;46181;51.498;5.392;2023-04-24T19:10:45;11.224;;;4.144;;
59986;SDS011;46181;51.498;5.392;2023-04-24T19:15:15;18.94;;;8.523999;;
59986;SDS011;46181;51.498;5.392;2023-04-24T19:19:45;53.68401;;;19.912;;
59986;SDS011;46181;51.498;5.392;2023-04-24T19:24:15;14.62;;;5.444;;
59986;SDS011;46181;51.498;5.392;2023-04-24T19:28:45;12.48;;;3.924001;;
59986;SDS011;46181;51.498;5.392;2023-04-24T19:33:15;11.3;;;3.675999;;
59986;SDS011;46181;51.498;5.392;2023-04-24T19:37:45;13.984;;;4.184;;
59986;SDS011;46181;51.498;5.392;2023-04-24T19:42:15;10.128;;;3.011999;;
59986;SDS011;46181;51.498;5.392;2023-04-24T19:46:45;10.348;;;3.112;;
59986;SDS011;46181;51.498;5.392;2023-04-24T19:51:15;10.032;;;3.584;;
59986;SDS011;46181;51.498;5.392;2023-04-24T19:55:45;11.324;;;3.595999;;
59986;SDS011;46181;51.498;5.392;2023-04-24T20:00:16;9.807998;;;3.116;;
59986;SDS011;46181;51.498;5.392;2023-04-24T20:04:45;9.772;;;2.995999;;
59986;SDS011;46181;51.498;5.392;2023-04-24T20:09:15;10.18;;;3.436001;;
59986;SDS011;46181;51.498;5.392;2023-04-24T20:13:45;11.16;;;3.524;;
59986;SDS011;46181;51.498;5.392;2023-04-24T20:18:15;10.244;;;3.196001;;
59986;SDS011;46181;51.498;5.392;2023-04-24T20:22:45;12.54;;;3.452;;
59986;SDS011;46181;51.498;5.392;2023-04-24T20:27:15;10.124;;;3.54;;
59986;SDS011;46181;51.498;5.392;2023-04-24T20:31:45;8.6;;;3.372;;
59986;SDS011;46181;51.498;5.392;2023-04-24T20:36:15;13.092;;;3.503999;;
59986;SDS011;46181;51.498;5.392;2023-04-24T20:40:45;11.192;;;3.184;;
59986;SDS011;46181;51.498;5.392;2023-04-24T20:45:15;11.44;;;3.744001;;
59986;SDS011;46181;51.498;5.392;2023-04-24T20:49:45;15.996;;;4.111999;;
59986;SDS011;46181;51.498;5.392;2023-04-24T20:54:15;12.492;;;4.064;;
59986;SDS011;46181;51.498;5.392;2023-04-24T20:58:47;12.924;;;3.808;;
59986;SDS011;46181;51.498;5.392;2023-04-24T21:03:15;14.72;;;4.204;;
59986;SDS011;46181;51.498;5.392;2023-04-24T21:07:45;14.044;;;4.14;;
59986;SDS011;46181;51.498;5.392;2023-04-24T21:12:15;11.316;;;4.416;;
59986;SDS011;46181;51.498;5.392;2023-04-24T21:16:45;19.172;;;4.956;;
59986;SDS011;46181;51.498;5.392;2023-04-24T21:21:15;15.392;;;5.032;;
59986;SDS011;46181;51.498;5.392;2023-04-24T21:25:45;10.824;;;4.732;;
59986;SDS011;46181;51.498;5.392;2023-04-24T21:30:15;14.592;;;5.187999;;
59986;SDS011;46181;51.498;5.392;2023-04-24T21:34:45;16.216;;;5.292;;
59986;SDS011;46181;51.498;5.392;2023-04-24T21:39:15;13.588;;;4.312;;
59986;SDS011;46181;51.498;5.392;2023-04-24T21:43:45;12.384;;;4.063999;;
59986;SDS011;46181;51.498;5.392;2023-04-24T21:48:15;10.496;;;3.840001;;
59986;SDS011;46181;51.498;5.392;2023-04-24T21:52:45;10.552;;;3.956001;;
59986;SDS011;46181;51.498;5.392;2023-04-24T21:57:15;11.332;;;3.996;;
59986;SDS011;46181;51.498;5.392;2023-04-24T22:01:45;12.816;;;3.744;;
59986;SDS011;46181;51.498;5.392;2023-04-24T22:06:15;10.796;;;3.932;;
59986;SDS011;46181;51.498;5.392;2023-04-24T22:10:45;11.12;;;3.824001;;
59986;SDS011;46181;51.498;5.392;2023-04-24T22:15:16;11.06;;;3.568;;
59986;SDS011;46181;51.498;5.392;2023-04-24T22:19:45;16.932;;;3.860001;;
59986;SDS011;46181;51.498;5.392;2023-04-24T22:24:16;12.688;;;4.612;;
59986;SDS011;46181;51.498;5.392;2023-04-24T22:28:45;11.012;;;3.408;;
59986;SDS011;46181;51.498;5.392;2023-04-24T22:33:15;9.62;;;3.708;;
59986;SDS011;46181;51.498;5.392;2023-04-24T22:37:45;9.727999;;;3.092;;
59986;SDS011;46181;51.498;5.392;2023-04-24T22:42:15;11.16;;;3.508;;
59986;SDS011;46181;51.498;5.392;2023-04-24T22:46:45;9.668;;;3.42;;
59986;SDS011;46181;51.498;5.392;2023-04-24T22:51:15;13.988;;;3.7;;
59986;SDS011;46181;51.498;5.392;2023-04-24T22:55:45;14.048;;;3.904;;
59986;SDS011;46181;51.498;5.392;2023-04-24T23:00:16;9.880001;;;3.304;;
59986;SDS011;46181;51.498;5.392;2023-04-24T23:04:45;11.704;;;3.9;;
59986;SDS011;46181;51.498;5.392;2023-04-24T23:09:15;11.94;;;3.704;;
59986;SDS011;46181;51.498;5.392;2023-04-24T23:13:45;14.192;;;3.644;;
59986;SDS011;46181;51.498;5.392;2023-04-24T23:18:15;14.848;;;4.127999;;
59986;SDS011;46181;51.498;5.392;2023-04-24T23:22:45;12.928;;;3.724001;;
59986;SDS011;46181;51.498;5.392;2023-04-24T23:27:15;9.408001;;;3.46;;
59986;SDS011;46181;51.498;5.392;2023-04-24T23:31:45;13.668;;;3.812001;;
59986;SDS011;46181;51.498;5.392;2023-04-24T23:36:15;12.98;;;3.544;;
59986;SDS011;46181;51.498;5.392;2023-04-24T23:40:45;12.172;;;3.551999;;
59986;SDS011;46181;51.498;5.392;2023-04-24T23:45:16;11.26;;;3.12;;
59986;SDS011;46181;51.498;5.392;2023-04-24T23:49:45;11.248;;;2.996;;
59986;SDS011;46181;51.498;5.392;2023-04-24T23:54:15;9.748;;;3.08;;
59986;SDS011;46181;51.498;5.392;2023-04-24T23:58:45;12.064;;;3.395999;;
